createdAt,value
2022-10-31T00:00:09.488Z,24.60
2022-10-31T00:02:11.222Z,22.00
2022-10-31T00:04:13.001Z,22.40
2022-10-31T00:06:14.722Z,26.05
2022-10-31T00:08:16.963Z,21.33
2022-10-31T00:10:18.426Z,18.83
2022-10-31T00:12:21.269Z,21.83
2022-10-31T00:14:22.750Z,21.98
2022-10-31T00:16:25.782Z,21.13
2022-10-31T00:18:27.337Z,23.98
2022-10-31T00:20:30.222Z,20.67
2022-10-31T00:22:31.707Z,24.50
2022-10-31T00:24:33.235Z,19.00
2022-10-31T00:26:34.957Z,23.50
2022-10-31T00:28:37.902Z,19.20
2022-10-31T00:30:39.774Z,22.00
2022-10-31T00:32:41.285Z,21.40
2022-10-31T00:34:42.773Z,19.92
2022-10-31T00:36:44.346Z,18.00
2022-10-31T00:38:47.132Z,20.05
2022-10-31T00:40:48.788Z,24.73
2022-10-31T00:42:50.409Z,20.25
2022-10-31T00:44:53.315Z,20.67
2022-10-31T00:46:54.870Z,24.17
2022-10-31T00:48:56.385Z,24.33
2022-10-31T00:51:00.753Z,23.50
2022-10-31T00:53:02.234Z,18.60
2022-10-31T00:55:04.372Z,20.08
2022-10-31T00:57:06.015Z,19.42
2022-10-31T00:59:07.508Z,20.50
2022-10-31T01:01:10.528Z,21.92
2022-10-31T01:03:12.128Z,21.40
2022-10-31T01:05:13.683Z,22.02
2022-10-31T01:07:15.239Z,23.27
2022-10-31T01:09:16.785Z,24.20
2022-10-31T01:11:21.501Z,21.13
2022-10-31T01:13:23.026Z,20.75
2022-10-31T01:15:24.651Z,24.00
2022-10-31T01:17:27.505Z,18.73
2022-10-31T01:19:29.068Z,20.05
2022-10-31T01:21:34.514Z,22.77
2022-10-31T01:23:37.108Z,23.17
2022-10-31T01:25:38.656Z,19.38
2022-10-31T01:27:40.176Z,21.73
2022-10-31T01:29:41.654Z,20.42
2022-10-31T01:31:43.268Z,25.05
2022-10-31T01:33:48.583Z,20.98
2022-10-31T01:35:50.076Z,20.80
2022-10-31T01:37:51.632Z,25.45
2022-10-31T01:39:53.186Z,25.23
2022-10-31T01:41:55.213Z,26.05
2022-10-31T01:43:59.255Z,21.75
2022-10-31T01:46:00.893Z,21.60
2022-10-31T01:48:02.841Z,22.52
2022-10-31T01:50:13.143Z,27.27
2022-10-31T01:52:21.106Z,24.40
2022-10-31T01:54:24.946Z,20.95
2022-10-31T01:56:27.089Z,18.40
2022-10-31T01:58:31.995Z,19.25
2022-10-31T02:00:33.979Z,18.30
2022-10-31T02:02:36.106Z,21.27
2022-10-31T02:04:38.070Z,20.88
2022-10-31T02:06:47.434Z,19.85
2022-10-31T02:08:49.212Z,20.67
2022-10-31T02:10:53.892Z,21.40
2022-10-31T02:12:59.038Z,14.52
2022-10-31T02:15:01.768Z,16.45
2022-10-31T02:17:03.363Z,19.23
2022-10-31T02:19:09.424Z,21.70
2022-10-31T02:21:19.364Z,20.35
2022-10-31T02:23:50.308Z,20.13
2022-10-31T02:26:19.727Z,20.52
2022-10-31T02:28:47.110Z,20.77
2022-10-31T02:31:04.129Z,18.52
2022-10-31T02:33:21.231Z,19.25
2022-10-31T02:35:35.600Z,17.48
2022-10-31T02:37:44.572Z,16.92
2022-10-31T02:39:55.101Z,20.20
2022-10-31T02:42:04.942Z,20.38
2022-10-31T02:44:11.148Z,22.67
2022-10-31T02:46:20.260Z,19.70
2022-10-31T02:48:26.285Z,17.85
2022-10-31T02:50:31.905Z,16.77
2022-10-31T02:52:35.125Z,27.10
2022-10-31T02:54:37.156Z,25.10
2022-10-31T02:56:39.109Z,21.08
2022-10-31T02:58:46.330Z,21.33
2022-10-31T03:01:05.001Z,20.55
2022-10-31T03:03:15.754Z,20.65
2022-10-31T03:05:29.848Z,23.25
2022-10-31T03:09:48.733Z,20.92
2022-10-31T03:11:58.424Z,22.75
2022-10-31T03:14:12.589Z,22.00
2022-10-31T03:16:17.015Z,21.80
2022-10-31T03:18:24.246Z,21.58
2022-10-31T03:20:34.486Z,21.40
2022-10-31T03:22:39.749Z,21.27
2022-10-31T03:24:42.823Z,23.23
2022-10-31T03:26:47.831Z,25.38
2022-10-31T03:28:54.592Z,23.55
2022-10-31T03:30:58.202Z,21.48
2022-10-31T03:33:04.112Z,25.00
2022-10-31T03:35:10.763Z,24.70
2022-10-31T03:37:17.781Z,24.98
2022-10-31T03:39:22.325Z,27.98
2022-10-31T03:41:29.195Z,24.55
2022-10-31T03:43:38.336Z,19.10
2022-10-31T03:45:44.069Z,19.35
2022-10-31T03:47:45.629Z,21.17
2022-10-31T03:49:47.190Z,20.35
2022-10-31T03:51:55.786Z,19.00
2022-10-31T03:54:03.409Z,17.75
2022-10-31T03:56:12.280Z,15.82
2022-10-31T03:58:22.347Z,20.98
2022-10-31T04:00:24.194Z,24.20
2022-10-31T04:02:32.114Z,20.38
2022-10-31T04:04:38.031Z,24.20
2022-10-31T04:06:42.690Z,20.20
2022-10-31T04:08:50.042Z,20.85
2022-10-31T04:10:53.638Z,19.50
2022-10-31T04:13:02.929Z,17.95
2022-10-31T04:15:08.391Z,20.23
2022-10-31T04:17:19.213Z,20.25
2022-10-31T04:19:20.747Z,20.70
2022-10-31T04:21:28.333Z,19.40
2022-10-31T04:23:29.985Z,20.55
2022-10-31T04:25:32.849Z,22.70
2022-10-31T04:27:34.453Z,19.77
2022-10-31T04:29:35.988Z,22.75
2022-10-31T04:31:37.478Z,22.92
2022-10-31T04:33:39.044Z,20.75
2022-10-31T04:35:41.018Z,20.02
2022-10-31T04:37:51.552Z,20.13
2022-10-31T04:39:53.084Z,26.35
2022-10-31T04:41:55.921Z,23.08
2022-10-31T04:43:57.456Z,25.70
2022-10-31T04:45:58.973Z,22.00
2022-10-31T04:48:00.773Z,22.30
2022-10-31T04:50:03.194Z,21.33
2022-10-31T04:52:04.889Z,27.98
2022-10-31T04:54:06.499Z,24.45
2022-10-31T04:56:08.123Z,22.02
2022-10-31T04:58:11.656Z,24.00
2022-10-31T05:00:15.263Z,23.33
2022-10-31T05:02:18.698Z,22.10
2022-10-31T05:04:20.336Z,21.05
2022-10-31T05:06:21.847Z,23.58
2022-10-31T05:08:23.333Z,19.42
2022-10-31T05:10:27.853Z,22.35
2022-10-31T05:12:29.304Z,21.13
2022-10-31T05:14:32.156Z,22.77
2022-10-31T05:16:33.705Z,17.90
2022-10-31T05:18:35.285Z,18.70
2022-10-31T05:20:36.778Z,19.85
2022-10-31T05:22:38.428Z,19.58
2022-10-31T05:24:39.962Z,17.05
2022-10-31T05:26:41.975Z,15.73
2022-10-31T05:28:43.513Z,14.75
2022-10-31T05:30:46.442Z,16.73
2022-10-31T05:32:49.572Z,18.08
2022-10-31T05:34:51.117Z,21.05
2022-10-31T05:36:52.642Z,18.85
2022-10-31T05:38:54.175Z,17.95
2022-10-31T05:40:58.215Z,18.23
2022-10-31T05:43:02.574Z,18.20
2022-10-31T05:45:05.151Z,19.88
2022-10-31T05:47:08.090Z,19.00
2022-10-31T05:49:09.622Z,22.42
2022-10-31T05:51:11.105Z,22.23
2022-10-31T05:53:12.623Z,20.02
2022-10-31T05:55:14.335Z,21.33
2022-10-31T05:57:15.830Z,17.50
2022-10-31T05:59:20.442Z,19.20
2022-10-31T06:01:22.094Z,21.48
2022-10-31T06:03:26.274Z,19.98
2022-10-31T06:05:28.245Z,18.45
2022-10-31T06:07:33.343Z,19.50
2022-10-31T06:09:34.808Z,18.08
2022-10-31T06:11:36.360Z,21.58
2022-10-31T06:13:37.823Z,19.25
2022-10-31T06:15:39.340Z,18.42
2022-10-31T06:17:40.953Z,16.80
2022-10-31T06:19:43.954Z,17.10
2022-10-31T06:21:45.464Z,16.58
2022-10-31T06:23:48.874Z,18.38
2022-10-31T06:25:52.223Z,20.30
2022-10-31T06:27:53.857Z,17.58
2022-10-31T06:29:55.385Z,15.05
2022-10-31T06:31:56.965Z,20.60
2022-10-31T06:33:58.507Z,23.48
2022-10-31T06:36:01.695Z,19.15
2022-10-31T06:38:03.838Z,21.73
2022-10-31T06:40:06.457Z,23.23
2022-10-31T06:42:08.026Z,23.42
2022-10-31T06:44:09.583Z,22.48
2022-10-31T06:46:11.125Z,20.50
2022-10-31T06:48:17.203Z,22.20
2022-10-31T06:50:24.205Z,20.63
2022-10-31T06:52:27.107Z,22.25
2022-10-31T06:54:28.691Z,20.38
2022-10-31T06:56:30.176Z,20.80
2022-10-31T06:58:31.697Z,16.90
2022-10-31T07:00:33.887Z,17.13
2022-10-31T07:02:35.475Z,19.17
2022-10-31T07:04:37.074Z,15.48
2022-10-31T07:06:39.003Z,18.38
2022-10-31T07:08:41.988Z,25.05
2022-10-31T07:10:44.006Z,18.33
2022-10-31T07:12:45.560Z,18.08
2022-10-31T07:14:47.020Z,17.52
2022-10-31T07:16:50.183Z,30.10
2022-10-31T07:18:51.936Z,19.10
2022-10-31T07:20:54.011Z,21.92
2022-10-31T07:22:55.592Z,27.77
2022-10-31T07:24:58.775Z,20.85
2022-10-31T07:27:03.225Z,18.58
2022-10-31T07:29:04.829Z,23.33
2022-10-31T07:31:06.947Z,17.77
2022-10-31T07:33:09.514Z,19.40
2022-10-31T07:35:13.128Z,24.65
2022-10-31T07:37:14.802Z,22.17
2022-10-31T07:39:16.377Z,17.88
2022-10-31T07:41:21.744Z,18.10
2022-10-31T07:43:23.325Z,22.55
2022-10-31T07:45:25.011Z,19.83
2022-10-31T07:47:29.480Z,19.27
2022-10-31T07:49:31.433Z,16.60
2022-10-31T07:51:33.073Z,18.60
2022-10-31T07:53:34.592Z,18.75
2022-10-31T07:55:37.102Z,18.38
2022-10-31T07:57:40.034Z,19.38
2022-10-31T07:59:41.583Z,20.52
2022-10-31T08:01:43.123Z,18.45
2022-10-31T08:03:44.728Z,18.83
2022-10-31T08:05:46.604Z,17.63
2022-10-31T08:07:48.169Z,22.33
2022-10-31T08:09:49.805Z,53.20
2022-10-31T08:11:51.331Z,26.80
2022-10-31T08:13:54.305Z,19.40
2022-10-31T08:15:55.913Z,24.05
2022-10-31T08:17:57.926Z,17.92
2022-10-31T08:19:59.744Z,46.42
2022-10-31T08:22:01.322Z,19.33
2022-10-31T08:24:02.898Z,24.73
2022-10-31T08:26:04.720Z,28.48
2022-10-31T08:28:07.109Z,32.53
2022-10-31T08:30:11.278Z,26.52
2022-10-31T08:32:12.939Z,22.70
2022-10-31T08:34:14.729Z,22.55
2022-10-31T08:36:16.307Z,20.25
2022-10-31T08:38:18.088Z,24.70
2022-10-31T08:40:23.024Z,22.88
2022-10-31T08:42:24.600Z,21.90
2022-10-31T08:44:26.253Z,22.85
2022-10-31T08:46:29.469Z,21.50
2022-10-31T08:48:31.080Z,25.00
2022-10-31T08:50:34.560Z,37.13
2022-10-31T08:53:02.833Z,57.58
2022-10-31T08:54:57.901Z,37.28
2022-10-31T08:56:59.512Z,32.33
2022-10-31T08:59:04.425Z,26.33
2022-10-31T09:01:06.288Z,28.13
2022-10-31T09:03:12.544Z,27.02
2022-10-31T09:05:14.317Z,27.10
2022-10-31T09:07:23.282Z,25.52
2022-10-31T09:09:25.474Z,23.95
2022-10-31T09:11:27.081Z,27.92
2022-10-31T09:13:30.566Z,26.92
2022-10-31T09:15:32.307Z,26.13
2022-10-31T09:17:36.416Z,27.63
2022-10-31T09:19:39.390Z,25.75
2022-10-31T09:21:41.244Z,23.25
2022-10-31T09:23:43.074Z,24.15
2022-10-31T09:25:50.023Z,27.92
2022-10-31T09:27:52.260Z,25.20
2022-10-31T09:29:53.842Z,22.42
2022-10-31T09:31:57.030Z,30.25
2022-10-31T09:33:58.636Z,27.65
2022-10-31T09:36:01.704Z,26.65
2022-10-31T09:38:05.015Z,22.02
2022-10-31T09:40:07.075Z,28.05
2022-10-31T09:42:29.942Z,34.22
2022-10-31T09:44:45.215Z,28.55
2022-10-31T09:46:54.492Z,26.40
2022-10-31T09:49:17.625Z,38.85
2022-10-31T09:51:24.447Z,26.52
2022-10-31T09:53:33.121Z,29.92
2022-10-31T09:55:38.051Z,29.95
2022-10-31T09:57:42.503Z,26.63
2022-10-31T09:59:45.940Z,26.90
2022-10-31T10:01:51.879Z,28.13
2022-10-31T10:03:58.415Z,25.48
2022-10-31T10:06:14.050Z,27.83
2022-10-31T10:08:20.650Z,32.00
2022-10-31T10:10:30.140Z,24.45
2022-10-31T10:12:44.329Z,35.47
2022-10-31T10:14:57.512Z,29.92
2022-10-31T10:17:13.090Z,21.38
2022-10-31T10:19:31.278Z,25.95
2022-10-31T10:21:42.914Z,26.23
2022-10-31T10:23:57.991Z,26.65
2022-10-31T10:26:13.852Z,29.90
2022-10-31T10:28:22.163Z,27.45
2022-10-31T10:30:31.249Z,27.92
2022-10-31T10:32:40.157Z,26.98
2022-10-31T10:34:46.453Z,27.40
2022-10-31T10:36:53.017Z,29.70
2022-10-31T10:39:00.989Z,28.58
2022-10-31T10:41:06.408Z,25.10
2022-10-31T10:43:32.829Z,27.67
2022-10-31T10:45:34.550Z,26.88
2022-10-31T10:47:42.211Z,25.42
2022-10-31T10:54:53.810Z,28.83
2022-10-31T10:57:06.799Z,29.95
2022-10-31T10:59:12.906Z,30.52
2022-10-31T11:03:25.669Z,30.17
2022-10-31T11:05:36.269Z,36.30
2022-10-31T11:07:40.851Z,28.48
2022-10-31T11:09:43.795Z,31.52
2022-10-31T11:11:45.570Z,26.83
2022-10-31T11:13:50.152Z,28.20
2022-10-31T11:15:56.718Z,29.70
2022-10-31T11:17:58.670Z,30.50
2022-10-31T11:20:06.316Z,34.80
2022-10-31T11:24:15.931Z,29.23
2022-10-31T11:26:21.585Z,29.60
2022-10-31T11:28:23.393Z,25.58
2022-10-31T11:30:27.750Z,27.50
2022-10-31T11:32:29.284Z,30.33
2022-10-31T11:34:33.789Z,31.15
2022-10-31T11:36:40.231Z,28.70
2022-10-31T11:38:43.651Z,27.65
2022-10-31T11:40:58.627Z,27.40
2022-10-31T11:43:01.883Z,31.63
2022-10-31T11:45:14.623Z,28.95
2022-10-31T11:47:24.489Z,36.15
2022-10-31T11:49:31.206Z,33.22
2022-10-31T11:51:35.586Z,32.72
2022-10-31T11:53:39.580Z,33.38
2022-10-31T11:55:41.112Z,30.98
2022-10-31T11:57:45.712Z,25.50
2022-10-31T11:59:53.672Z,30.48
2022-10-31T12:01:57.371Z,27.15
2022-10-31T12:04:07.377Z,33.00
2022-10-31T12:06:13.260Z,30.95
2022-10-31T12:08:14.874Z,27.90
2022-10-31T12:10:21.327Z,26.60
2022-10-31T12:12:51.774Z,27.50
2022-10-31T12:15:10.790Z,25.80
2022-10-31T12:17:16.306Z,28.88
2022-10-31T12:19:28.831Z,25.65
2022-10-31T12:21:53.165Z,25.30
2022-10-31T12:24:04.985Z,27.02
2022-10-31T12:26:16.473Z,23.60
2022-10-31T12:28:46.410Z,31.50
2022-10-31T12:31:10.675Z,21.48
2022-10-31T12:33:24.369Z,27.45
2022-10-31T12:35:41.922Z,25.20
2022-10-31T12:38:06.006Z,24.67
2022-10-31T12:40:29.042Z,27.15
2022-10-31T12:42:46.609Z,29.42
2022-10-31T12:45:04.914Z,24.88
2022-10-31T12:47:27.402Z,23.33
2022-10-31T12:49:43.110Z,27.88
2022-10-31T12:51:51.918Z,25.92
2022-10-31T12:54:14.601Z,29.30
2022-10-31T12:56:32.571Z,31.85
2022-10-31T12:58:39.619Z,29.80
2022-10-31T13:00:48.838Z,30.38
2022-10-31T13:02:55.761Z,28.23
2022-10-31T13:05:02.709Z,30.30
2022-10-31T13:07:09.503Z,31.10
2022-10-31T13:09:15.691Z,27.13
2022-10-31T13:11:22.439Z,31.73
2022-10-31T13:13:28.421Z,26.13
2022-10-31T13:15:42.146Z,26.67
2022-10-31T13:17:48.036Z,26.58
2022-10-31T13:19:52.801Z,26.83
2022-10-31T13:22:04.066Z,28.45
2022-10-31T13:24:13.261Z,21.20
2022-10-31T13:26:22.510Z,29.65
2022-10-31T13:28:34.664Z,22.60
2022-10-31T13:30:40.986Z,23.73
2022-10-31T13:32:49.748Z,31.40
2022-10-31T13:34:56.006Z,27.65
2022-10-31T13:37:05.226Z,23.58
2022-10-31T13:39:24.515Z,21.05
2022-10-31T13:41:41.499Z,28.35
2022-10-31T13:44:01.689Z,22.13
2022-10-31T13:48:20.841Z,28.33
2022-10-31T13:50:26.168Z,26.02
2022-10-31T13:52:27.995Z,28.00
2022-10-31T13:54:34.328Z,26.73
2022-10-31T13:56:36.046Z,25.38
2022-10-31T13:58:38.915Z,26.42
2022-10-31T14:00:44.587Z,28.05
2022-10-31T14:02:48.580Z,29.83
2022-10-31T14:07:08.930Z,24.50
2022-10-31T14:09:26.849Z,26.92
2022-10-31T14:11:34.539Z,28.95
2022-10-31T14:13:44.119Z,27.92
2022-10-31T14:15:55.208Z,28.60
2022-10-31T14:18:04.554Z,24.73
2022-10-31T14:20:33.043Z,22.40
2022-10-31T14:22:42.355Z,24.20
2022-10-31T14:24:44.701Z,27.58
2022-10-31T14:26:53.997Z,26.13
2022-10-31T14:28:57.323Z,24.67
2022-10-31T14:31:00.825Z,25.05
2022-10-31T14:33:21.285Z,26.50
2022-10-31T14:35:26.483Z,25.55
2022-10-31T14:37:56.327Z,25.90
2022-10-31T14:40:18.489Z,22.70
2022-10-31T14:42:34.831Z,28.13
2022-10-31T14:44:50.282Z,27.75
2022-10-31T14:47:00.379Z,22.23
2022-10-31T14:49:31.166Z,24.25
2022-10-31T14:51:39.456Z,24.42
2022-10-31T14:53:47.748Z,24.27
2022-10-31T14:55:52.430Z,30.08
2022-10-31T14:58:00.611Z,30.42
2022-10-31T15:00:05.240Z,27.88
2022-10-31T15:02:15.886Z,27.33
2022-10-31T15:04:24.072Z,33.00
2022-10-31T15:06:27.398Z,30.05
2022-10-31T15:08:34.320Z,32.55
2022-10-31T15:10:38.331Z,36.10
2022-10-31T15:12:42.805Z,38.60
2022-10-31T15:14:44.379Z,38.90
2022-10-31T15:16:48.932Z,33.20
2022-10-31T15:18:56.092Z,44.85
2022-10-31T15:20:59.436Z,34.10
2022-10-31T15:23:01.482Z,33.17
2022-10-31T15:25:03.427Z,36.92
2022-10-31T15:27:11.547Z,29.55
2022-10-31T15:29:17.186Z,36.25
2022-10-31T15:31:19.036Z,39.85
2022-10-31T15:33:22.856Z,44.67
2022-10-31T15:35:27.165Z,36.67
2022-10-31T15:37:31.791Z,32.55
2022-10-31T15:39:33.360Z,37.40
2022-10-31T15:41:36.947Z,45.45
2022-10-31T15:43:40.992Z,41.33
2022-10-31T15:45:43.475Z,42.35
2022-10-31T15:47:49.133Z,41.65
2022-10-31T15:49:54.949Z,36.60
2022-10-31T15:51:56.734Z,42.63
2022-10-31T15:53:59.470Z,40.03
2022-10-31T15:56:04.776Z,40.00
2022-10-31T15:58:12.797Z,42.78
2022-10-31T16:00:25.805Z,46.30
2022-10-31T16:02:28.314Z,40.15
2022-10-31T16:04:30.793Z,42.15
2022-10-31T16:06:34.705Z,46.17
2022-10-31T16:08:37.883Z,34.50
2022-10-31T16:10:41.779Z,46.10
2022-10-31T16:12:45.765Z,43.38
2022-10-31T16:14:47.730Z,44.55
2022-10-31T16:16:53.094Z,42.13
2022-10-31T16:18:56.522Z,89.85
2022-10-31T16:20:58.567Z,49.20
2022-10-31T16:23:00.809Z,46.42
2022-10-31T16:25:09.705Z,44.28
2022-10-31T16:27:19.454Z,46.38
2022-10-31T16:29:27.266Z,41.95
2022-10-31T16:31:31.677Z,51.13
2022-10-31T16:33:36.082Z,47.00
2022-10-31T16:35:39.259Z,46.13
2022-10-31T16:37:41.485Z,49.15
2022-10-31T16:39:43.005Z,53.00
2022-10-31T16:41:49.659Z,60.35
2022-10-31T16:43:52.621Z,56.58
2022-10-31T16:45:54.131Z,56.10
2022-10-31T16:48:03.926Z,56.47
2022-10-31T16:50:17.008Z,47.42
2022-10-31T16:52:18.728Z,58.10
2022-10-31T16:54:20.302Z,48.58
2022-10-31T16:56:31.329Z,53.13
2022-10-31T16:58:35.344Z,45.38
2022-10-31T17:00:37.263Z,49.55
2022-10-31T17:02:39.082Z,51.67
2022-10-31T17:04:40.596Z,51.67
2022-10-31T17:06:43.524Z,57.10
2022-10-31T17:08:45.064Z,52.75
2022-10-31T17:10:48.619Z,51.58
2022-10-31T17:12:51.170Z,52.92
2022-10-31T17:14:52.940Z,52.13
2022-10-31T17:17:01.925Z,55.25
2022-10-31T17:19:03.674Z,54.40
2022-10-31T17:21:05.920Z,58.88
2022-10-31T17:23:10.033Z,56.83
2022-10-31T17:25:14.573Z,53.25
2022-10-31T17:27:16.116Z,50.92
2022-10-31T17:29:17.624Z,53.75
2022-10-31T17:31:22.073Z,59.75
2022-10-31T17:33:23.788Z,50.97
2022-10-31T17:35:25.713Z,55.97
2022-10-31T17:37:27.211Z,53.17
2022-10-31T17:39:30.093Z,56.97
2022-10-31T17:41:31.555Z,50.83
2022-10-31T17:43:33.079Z,57.92
2022-10-31T17:45:34.681Z,55.30
2022-10-31T17:47:36.290Z,52.10
2022-10-31T17:49:40.063Z,59.40
2022-10-31T17:51:41.793Z,58.58
2022-10-31T17:53:43.387Z,55.10
2022-10-31T17:55:46.431Z,48.55
2022-10-31T17:57:48.050Z,57.78
2022-10-31T17:59:49.596Z,58.55
2022-10-31T18:01:51.241Z,56.90
2022-10-31T18:03:52.822Z,58.17
2022-10-31T18:05:56.743Z,58.08
2022-10-31T18:08:03.782Z,55.30
2022-10-31T18:12:09.425Z,62.08
2022-10-31T18:14:11.162Z,60.22
2022-10-31T18:16:15.033Z,55.72
2022-10-31T18:18:16.853Z,52.33
2022-10-31T18:20:18.389Z,60.30
2022-10-31T18:22:22.584Z,59.22
2022-10-31T18:24:24.247Z,53.75
2022-10-31T18:26:27.552Z,56.60
2022-10-31T18:28:30.544Z,62.08
2022-10-31T18:30:32.656Z,54.13
2022-10-31T18:32:34.359Z,54.63
2022-10-31T18:34:36.035Z,55.92
2022-10-31T18:36:37.573Z,55.38
2022-10-31T18:38:40.069Z,53.40
2022-10-31T18:40:41.648Z,54.78
2022-10-31T18:42:43.276Z,59.67
2022-10-31T18:44:46.194Z,57.80
2022-10-31T18:46:50.562Z,53.22
2022-10-31T18:48:52.237Z,57.92
2022-10-31T18:50:53.868Z,50.95
2022-10-31T18:52:55.946Z,53.85
2022-10-31T18:54:57.475Z,57.70
2022-10-31T18:56:58.992Z,58.33
2022-10-31T18:59:02.526Z,80.28
2022-10-31T19:01:08.127Z,62.67
2022-10-31T19:03:09.833Z,52.20
2022-10-31T19:05:14.415Z,64.78
2022-10-31T19:07:15.993Z,56.00
2022-10-31T19:09:17.647Z,55.47
2022-10-31T19:11:19.452Z,151.85
2022-10-31T19:13:21.086Z,112.35
2022-10-31T19:15:22.755Z,82.43
2022-10-31T19:17:26.119Z,62.83
2022-10-31T19:19:27.727Z,82.93
2022-10-31T19:21:29.497Z,54.55
2022-10-31T19:23:33.902Z,55.03
2022-10-31T19:25:35.679Z,58.20
2022-10-31T19:27:37.364Z,57.13
2022-10-31T19:29:39.168Z,55.95
2022-10-31T19:31:40.922Z,80.78
2022-10-31T19:33:43.882Z,65.30
2022-10-31T19:35:45.613Z,59.65
2022-10-31T19:37:49.701Z,57.50
2022-10-31T19:39:51.866Z,70.80
2022-10-31T19:41:53.509Z,61.88
2022-10-31T19:43:55.586Z,99.00
2022-10-31T19:45:58.531Z,61.88
2022-10-31T19:48:00.676Z,53.85
2022-10-31T19:50:06.340Z,73.47
2022-10-31T19:52:08.054Z,59.10
2022-10-31T19:54:10.799Z,50.20
2022-10-31T19:56:14.425Z,56.88
2022-10-31T19:58:16.117Z,56.08
2022-10-31T20:00:20.792Z,65.32
2022-10-31T20:02:22.419Z,51.13
2022-10-31T20:04:24.031Z,56.75
2022-10-31T20:06:29.012Z,52.08
2022-10-31T20:08:30.607Z,62.33
2022-10-31T20:10:35.024Z,55.63
2022-10-31T20:12:36.591Z,57.75
2022-10-31T20:14:38.130Z,60.30
2022-10-31T20:16:39.694Z,53.10
2022-10-31T20:18:41.825Z,60.13
2022-10-31T20:20:46.437Z,51.30
2022-10-31T20:22:49.435Z,58.95
2022-10-31T20:24:53.989Z,53.20
2022-10-31T20:26:55.518Z,65.82
2022-10-31T20:28:57.862Z,65.78
2022-10-31T20:31:00.124Z,53.50
2022-10-31T20:33:01.780Z,68.63
2022-10-31T20:35:03.708Z,66.60
2022-10-31T20:37:05.505Z,55.17
2022-10-31T20:39:08.747Z,54.95
2022-10-31T20:41:11.299Z,60.40
2022-10-31T20:43:12.956Z,68.22
2022-10-31T20:45:14.590Z,55.80
2022-10-31T20:47:16.102Z,51.28
2022-10-31T20:49:17.666Z,50.35
2022-10-31T20:51:21.253Z,68.30
2022-10-31T20:53:22.839Z,60.67
2022-10-31T20:55:25.833Z,73.07
2022-10-31T20:57:27.426Z,51.05
2022-10-31T20:59:29.047Z,53.72
2022-10-31T21:01:32.350Z,56.75
2022-10-31T21:03:34.091Z,68.47
2022-10-31T21:05:35.612Z,59.10
2022-10-31T21:07:37.218Z,56.60
2022-10-31T21:09:38.988Z,50.92
2022-10-31T21:11:41.981Z,54.83
2022-10-31T21:13:45.053Z,59.97
2022-10-31T21:15:46.923Z,59.75
2022-10-31T21:17:48.438Z,56.97
2022-10-31T21:19:49.987Z,83.57
2022-10-31T21:21:51.521Z,51.72
2022-10-31T21:23:54.711Z,53.25
2022-10-31T21:25:56.485Z,54.53
2022-10-31T21:27:59.686Z,52.75
2022-10-31T21:30:01.511Z,52.40
2022-10-31T21:32:06.264Z,58.00
2022-10-31T21:34:10.336Z,58.00
2022-10-31T21:36:12.351Z,57.65
2022-10-31T21:38:14.104Z,55.42
2022-10-31T21:40:15.640Z,54.63
2022-10-31T21:42:21.346Z,61.03
2022-10-31T21:44:27.218Z,58.90
2022-10-31T21:46:31.224Z,61.17
2022-10-31T21:48:33.338Z,62.33
2022-10-31T21:50:35.344Z,59.65
2022-10-31T21:52:39.584Z,51.25
2022-10-31T21:54:41.137Z,52.55
2022-10-31T21:56:43.156Z,62.63
2022-10-31T21:58:45.209Z,65.65
2022-10-31T22:00:48.088Z,68.95
2022-10-31T22:02:49.653Z,59.30
2022-10-31T22:04:51.278Z,61.83
2022-10-31T22:06:53.158Z,62.00
2022-10-31T22:08:54.874Z,58.10
2022-10-31T22:10:56.459Z,57.05
2022-10-31T22:12:57.945Z,59.95
2022-10-31T22:14:59.524Z,55.53
2022-10-31T22:17:02.501Z,65.18
2022-10-31T22:19:05.293Z,55.95
2022-10-31T22:21:09.530Z,57.08
2022-10-31T22:23:11.066Z,58.25
2022-10-31T22:25:12.578Z,51.38
2022-10-31T22:27:14.109Z,68.28
2022-10-31T22:29:17.198Z,50.92
2022-10-31T22:31:20.525Z,60.00
2022-10-31T22:33:23.911Z,68.45
2022-10-31T22:35:25.613Z,56.88
2022-10-31T22:37:27.166Z,51.25
2022-10-31T22:39:28.911Z,59.85
2022-10-31T22:41:32.969Z,52.80
2022-10-31T22:43:34.609Z,55.58
2022-10-31T22:45:36.132Z,51.55
2022-10-31T22:49:47.695Z,54.58
2022-10-31T22:51:51.206Z,48.33
2022-10-31T22:53:52.983Z,51.30
2022-10-31T22:55:54.474Z,52.08
2022-10-31T22:57:55.967Z,54.88
2022-10-31T22:59:57.524Z,53.97
2022-10-31T23:01:59.345Z,57.45
2022-10-31T23:04:03.378Z,54.05
2022-10-31T23:06:07.554Z,52.00
2022-10-31T23:08:09.047Z,57.28
2022-10-31T23:10:10.605Z,57.47
2022-10-31T23:12:12.078Z,54.67
2022-10-31T23:14:16.444Z,52.13
2022-10-31T23:16:18.142Z,53.13
2022-10-31T23:18:47.929Z,53.95
2022-10-31T23:20:50.808Z,58.53
2022-10-31T23:22:53.699Z,48.10
2022-10-31T23:24:55.416Z,50.00
2022-10-31T23:26:58.156Z,53.47
2022-10-31T23:28:59.695Z,52.13
2022-10-31T23:31:01.301Z,47.22
2022-10-31T23:33:03.108Z,52.40
2022-10-31T23:35:06.906Z,50.05
2022-10-31T23:39:19.950Z,50.97
2022-10-31T23:41:24.327Z,50.50
2022-10-31T23:43:25.824Z,53.35
2022-10-31T23:45:27.350Z,48.22
2022-10-31T23:47:28.945Z,50.65
2022-10-31T23:49:30.669Z,49.63
2022-10-31T23:51:32.329Z,51.50
2022-10-31T23:53:33.848Z,51.28
2022-10-31T23:55:37.086Z,48.92
2022-10-31T23:57:38.706Z,46.72
2022-10-31T23:59:40.425Z,42.90
